createdAt,value
2023-03-16T00:01:32.437Z,3.80
2023-03-16T00:05:33.962Z,3.80
2023-03-16T00:09:40.807Z,3.77
2023-03-16T00:13:42.754Z,3.74
2023-03-16T00:17:48.344Z,3.74
2023-03-16T00:21:51.239Z,3.70
2023-03-16T00:26:00.156Z,3.67
2023-03-16T00:30:03.321Z,3.63
2023-03-16T00:34:05.888Z,3.59
2023-03-16T00:38:07.413Z,3.56
2023-03-16T00:42:10.363Z,3.53
2023-03-16T00:46:17.303Z,3.52
2023-03-16T00:50:22.214Z,3.49
2023-03-16T00:54:23.900Z,3.46
2023-03-16T00:58:25.612Z,3.44
2023-03-16T01:02:27.266Z,3.42
2023-03-16T01:06:28.817Z,3.41
2023-03-16T01:10:30.550Z,3.39
2023-03-16T01:14:34.800Z,3.37
2023-03-16T01:18:36.534Z,3.34
2023-03-16T01:22:38.631Z,3.28
2023-03-16T01:26:40.704Z,3.26
2023-03-16T01:30:43.702Z,3.23
2023-03-16T01:34:45.289Z,3.22
2023-03-16T01:38:48.146Z,3.19
2023-03-16T01:43:00.753Z,3.17
2023-03-16T01:47:04.202Z,3.15
2023-03-16T01:51:17.323Z,3.13
2023-03-16T01:55:19.049Z,3.10
2023-03-16T01:59:23.325Z,3.04
2023-03-16T02:03:27.278Z,2.95
2023-03-16T02:07:42.387Z,2.89
2023-03-16T02:11:44.624Z,2.84
2023-03-16T02:15:49.036Z,2.80
2023-03-16T02:20:24.335Z,2.65
2023-03-16T02:24:25.989Z,2.65
2023-03-16T02:28:48.135Z,2.62
2023-03-16T02:32:53.358Z,2.51
2023-03-16T02:36:57.686Z,2.56
2023-03-16T02:41:11.543Z,2.55
2023-03-16T02:45:13.289Z,2.53
2023-03-16T02:49:24.981Z,2.50
2023-03-16T02:53:26.723Z,2.48
2023-03-16T02:57:28.947Z,2.48
2023-03-16T03:01:36.488Z,2.47
2023-03-16T03:05:38.067Z,2.47
2023-03-16T03:09:43.173Z,2.45
2023-03-16T03:13:44.830Z,2.48
2023-03-16T03:17:51.193Z,2.48
2023-03-16T03:21:56.659Z,2.50
2023-03-16T03:25:59.741Z,2.50
2023-03-16T03:30:02.947Z,2.51
2023-03-16T03:34:06.849Z,2.45
2023-03-16T03:38:11.599Z,2.43
2023-03-16T03:42:14.136Z,2.44
2023-03-16T03:46:16.327Z,2.43
2023-03-16T03:50:18.293Z,2.43
2023-03-16T03:54:32.914Z,2.47
2023-03-16T03:58:39.523Z,2.50
2023-03-16T04:02:41.887Z,2.51
2023-03-16T04:06:52.252Z,2.55
2023-03-16T04:10:53.894Z,2.51
2023-03-16T04:14:56.624Z,2.48
2023-03-16T04:19:00.084Z,2.50
2023-03-16T04:23:01.983Z,2.48
2023-03-16T04:27:05.152Z,2.51
2023-03-16T04:31:09.532Z,2.53
2023-03-16T04:35:15.683Z,2.55
2023-03-16T04:39:24.413Z,2.58
2023-03-16T04:43:26.677Z,2.58
2023-03-16T04:47:33.916Z,2.59
2023-03-16T04:51:40.608Z,2.59
2023-03-16T04:55:46.168Z,2.61
2023-03-16T04:59:48.905Z,2.59
2023-03-16T05:03:59.676Z,2.59
2023-03-16T05:08:06.216Z,2.59
2023-03-16T05:12:10.571Z,2.56
2023-03-16T05:16:13.735Z,2.51
2023-03-16T05:20:17.000Z,2.50
2023-03-16T05:24:26.437Z,2.53
2023-03-16T05:28:28.541Z,2.51
2023-03-16T05:32:35.217Z,2.50
2023-03-16T05:36:37.028Z,2.48
2023-03-16T05:40:43.915Z,2.50
2023-03-16T05:45:06.352Z,2.48
2023-03-16T05:49:23.574Z,2.51
2023-03-16T05:53:28.696Z,2.53
2023-03-16T05:57:34.101Z,2.53
2023-03-16T06:01:35.914Z,2.53
2023-03-16T06:05:38.201Z,2.55
2023-03-16T06:09:40.712Z,2.58
2023-03-16T06:13:47.921Z,2.59
2023-03-16T06:17:49.905Z,2.63
2023-03-16T06:21:51.820Z,2.66
2023-03-16T06:25:56.396Z,2.68
2023-03-16T06:30:00.667Z,2.73
2023-03-16T06:34:02.563Z,2.79
2023-03-16T06:38:05.379Z,2.84
2023-03-16T06:42:28.774Z,2.89
2023-03-16T06:46:33.089Z,2.94
2023-03-16T06:50:37.169Z,2.97
2023-03-16T06:54:41.010Z,3.04
2023-03-16T06:58:42.893Z,3.07
2023-03-16T07:02:44.638Z,3.12
2023-03-16T07:06:47.690Z,3.17
2023-03-16T07:10:51.731Z,3.22
2023-03-16T07:14:54.359Z,3.25
2023-03-16T07:18:59.429Z,3.26
2023-03-16T07:23:01.106Z,3.30
2023-03-16T07:27:03.050Z,3.33
2023-03-16T07:31:07.845Z,3.34
2023-03-16T07:35:14.793Z,3.37
2023-03-16T07:39:17.733Z,3.44
2023-03-16T07:43:19.997Z,3.49
2023-03-16T07:47:26.551Z,3.57
2023-03-16T07:51:31.783Z,3.64
2023-03-16T07:55:36.462Z,3.75
2023-03-16T07:59:39.436Z,3.84
2023-03-16T08:03:42.340Z,3.95
2023-03-16T08:07:44.183Z,4.07
2023-03-16T08:11:49.364Z,4.18
2023-03-16T08:16:01.918Z,4.28
2023-03-16T08:20:14.356Z,4.42
2023-03-16T08:24:16.592Z,4.50
2023-03-16T08:28:21.465Z,4.67
2023-03-16T08:32:23.897Z,4.75
2023-03-16T08:36:25.689Z,4.88
2023-03-16T08:40:30.197Z,5.01
2023-03-16T08:44:36.225Z,5.17
2023-03-16T08:48:38.266Z,5.32
2023-03-16T08:52:40.774Z,5.45
2023-03-16T08:56:42.401Z,5.51
2023-03-16T09:00:46.838Z,5.62
2023-03-16T09:04:50.408Z,5.75
2023-03-16T09:08:52.046Z,5.88
2023-03-16T09:12:53.944Z,5.99
2023-03-16T09:16:56.453Z,6.17
2023-03-16T09:21:03.801Z,6.39
2023-03-16T09:25:06.951Z,6.54
2023-03-16T09:29:08.521Z,6.71
2023-03-16T09:33:10.174Z,6.87
2023-03-16T09:37:11.806Z,7.04
2023-03-16T09:41:42.731Z,7.16
2023-03-16T09:45:47.184Z,7.30
2023-03-16T09:49:50.028Z,7.39
2023-03-16T09:53:58.352Z,7.51
2023-03-16T10:14:05.810Z,7.89
2023-03-16T10:18:23.444Z,7.95
2023-03-16T10:22:29.709Z,8.13
2023-03-16T10:26:40.779Z,8.22
2023-03-16T10:30:43.609Z,8.36
2023-03-16T10:34:54.149Z,8.43
2023-03-16T10:39:01.841Z,8.55
2023-03-16T10:43:09.284Z,8.80
2023-03-16T10:47:19.865Z,9.06
2023-03-16T10:51:25.627Z,9.15
2023-03-16T10:55:34.679Z,9.23
2023-03-16T10:59:37.044Z,9.38
2023-03-16T11:03:44.075Z,9.55
2023-03-16T11:08:13.542Z,9.73
2023-03-16T11:12:21.639Z,9.89
2023-03-16T11:16:41.537Z,10.01
2023-03-16T11:20:43.787Z,10.09
2023-03-16T11:25:06.401Z,10.16
2023-03-16T11:29:45.162Z,10.24
2023-03-16T11:33:49.048Z,10.32
2023-03-16T11:38:19.060Z,10.51
2023-03-16T11:42:29.028Z,10.58
2023-03-16T11:46:37.643Z,10.70
2023-03-16T11:50:50.570Z,10.75
2023-03-16T11:55:11.130Z,10.86
2023-03-16T11:59:28.740Z,10.90
2023-03-16T12:03:46.720Z,10.87
2023-03-16T12:08:04.496Z,10.86
2023-03-16T12:12:37.504Z,10.95
2023-03-16T12:16:51.528Z,11.06
2023-03-16T12:21:05.680Z,11.17
2023-03-16T12:25:21.996Z,11.27
2023-03-16T12:29:36.277Z,11.38
2023-03-16T12:33:57.560Z,11.38
2023-03-16T12:38:29.879Z,11.54
2023-03-16T12:42:50.509Z,11.74
2023-03-16T12:47:25.523Z,11.82
2023-03-16T12:51:38.679Z,11.82
2023-03-16T12:55:44.950Z,12.03
2023-03-16T12:59:50.010Z,12.22
2023-03-16T13:04:00.893Z,12.34
2023-03-16T13:08:10.579Z,12.54
2023-03-16T13:12:25.950Z,12.67
2023-03-16T13:16:31.083Z,12.70
2023-03-16T13:20:54.300Z,12.70
2023-03-16T13:24:59.985Z,12.73
2023-03-16T13:29:10.766Z,12.74
2023-03-16T13:33:24.791Z,12.84
2023-03-16T13:37:29.400Z,12.76
2023-03-16T13:41:31.373Z,12.79
2023-03-16T13:45:37.098Z,12.69
2023-03-16T13:49:55.693Z,12.85
2023-03-16T13:53:57.385Z,13.04
2023-03-16T13:57:59.514Z,13.06
2023-03-16T14:02:01.928Z,13.12
2023-03-16T14:06:05.765Z,13.12
2023-03-16T14:10:14.587Z,13.17
2023-03-16T14:14:20.273Z,13.22
2023-03-16T14:18:34.263Z,13.31
2023-03-16T14:22:37.938Z,13.35
2023-03-16T14:26:45.001Z,13.38
2023-03-16T14:31:09.475Z,13.41
2023-03-16T14:35:21.875Z,13.51
2023-03-16T14:39:28.954Z,13.53
2023-03-16T14:43:33.606Z,13.41
2023-03-16T14:47:41.202Z,13.28
2023-03-16T14:51:45.419Z,13.22
2023-03-16T14:55:47.556Z,13.25
2023-03-16T14:59:49.069Z,13.27
2023-03-16T15:03:50.706Z,13.28
2023-03-16T15:07:54.958Z,13.36
2023-03-16T15:11:57.979Z,13.25
2023-03-16T15:16:00.580Z,13.14
2023-03-16T15:20:03.240Z,13.07
2023-03-16T15:24:04.898Z,12.99
2023-03-16T15:28:09.136Z,12.95
2023-03-16T15:32:13.290Z,12.94
2023-03-16T15:36:16.936Z,12.89
2023-03-16T15:40:28.824Z,12.87
2023-03-16T15:44:30.628Z,12.85
2023-03-16T15:48:33.065Z,12.84
2023-03-16T15:52:37.817Z,12.77
2023-03-16T15:56:53.809Z,12.70
2023-03-16T16:00:58.150Z,12.66
2023-03-16T16:04:59.979Z,12.66
2023-03-16T16:09:01.566Z,12.59
2023-03-16T16:13:03.196Z,12.51
2023-03-16T16:17:05.747Z,12.43
2023-03-16T16:21:14.028Z,12.36
2023-03-16T16:25:16.414Z,12.26
2023-03-16T16:29:22.241Z,12.18
2023-03-16T16:33:41.936Z,12.05
2023-03-16T16:37:45.049Z,12.00
2023-03-16T16:41:49.501Z,11.98
2023-03-16T16:45:51.685Z,12.07
2023-03-16T16:49:53.364Z,11.94
2023-03-16T16:53:57.354Z,11.79
2023-03-16T16:57:58.989Z,11.70
2023-03-16T17:02:03.174Z,11.62
2023-03-16T17:06:04.936Z,11.51
2023-03-16T17:10:07.160Z,11.45
2023-03-16T17:14:09.444Z,11.38
2023-03-16T17:18:14.018Z,11.31
2023-03-16T17:22:22.782Z,11.23
2023-03-16T17:26:27.964Z,11.11
2023-03-16T17:30:32.138Z,11.05
2023-03-16T17:34:34.187Z,10.95
2023-03-16T17:38:35.840Z,10.90
2023-03-16T17:42:37.542Z,10.81
2023-03-16T17:46:39.487Z,10.75
2023-03-16T17:50:41.478Z,10.70
2023-03-16T17:54:43.591Z,10.66
2023-03-16T17:58:47.257Z,10.63
2023-03-16T18:02:54.887Z,10.62
2023-03-16T18:06:56.591Z,10.60
2023-03-16T18:11:02.143Z,10.57
2023-03-16T18:15:04.467Z,10.54
2023-03-16T18:19:20.420Z,10.47
2023-03-16T18:23:24.928Z,10.42
2023-03-16T18:27:27.165Z,10.35
2023-03-16T18:31:28.841Z,10.29
2023-03-16T18:35:31.986Z,10.28
2023-03-16T18:39:33.823Z,10.22
2023-03-16T18:43:36.014Z,10.17
2023-03-16T18:47:39.573Z,10.14
2023-03-16T18:51:42.578Z,10.09
2023-03-16T18:55:45.052Z,10.09
2023-03-16T18:59:47.169Z,10.06
2023-03-16T19:03:49.622Z,10.02
2023-03-16T19:07:52.515Z,9.99
2023-03-16T19:11:54.083Z,9.98
2023-03-16T19:15:57.665Z,9.92
2023-03-16T19:19:59.324Z,9.92
2023-03-16T19:24:04.086Z,9.89
2023-03-16T19:28:10.856Z,9.88
2023-03-16T19:32:17.382Z,9.86
2023-03-16T19:36:22.802Z,9.81
2023-03-16T19:40:25.442Z,9.80
2023-03-16T19:44:28.494Z,9.75
2023-03-16T19:48:33.864Z,9.74
2023-03-16T19:52:35.663Z,9.73
2023-03-16T19:56:37.316Z,9.68
2023-03-16T20:00:39.005Z,9.68
2023-03-16T20:04:40.887Z,9.65
2023-03-16T20:08:44.022Z,9.59
2023-03-16T20:12:46.228Z,9.59
2023-03-16T20:16:48.230Z,9.56
2023-03-16T20:20:49.884Z,9.53
2023-03-16T20:24:54.257Z,9.52
2023-03-16T20:28:56.569Z,9.48
2023-03-16T20:32:58.395Z,9.44
2023-03-16T20:37:00.411Z,9.42
2023-03-16T20:41:02.494Z,9.41
2023-03-16T20:45:16.364Z,9.38
2023-03-16T20:49:25.191Z,9.38
2023-03-16T20:53:27.523Z,9.34
2023-03-16T20:57:30.138Z,9.34
2023-03-16T21:01:32.115Z,9.32
2023-03-16T21:05:33.818Z,9.31
2023-03-16T21:09:35.363Z,9.30
2023-03-16T21:13:36.919Z,9.27
2023-03-16T21:17:39.238Z,9.27
2023-03-16T21:21:41.412Z,9.26
2023-03-16T21:25:50.313Z,9.24
2023-03-16T21:29:54.847Z,9.26
2023-03-16T21:33:56.622Z,9.24
2023-03-16T21:37:59.084Z,9.26
2023-03-16T21:42:00.637Z,9.26
2023-03-16T21:46:03.109Z,9.24
2023-03-16T21:50:15.096Z,9.24
2023-03-16T21:54:17.923Z,9.20
2023-03-16T21:58:19.941Z,9.17
2023-03-16T22:02:24.739Z,9.17
2023-03-16T22:06:29.279Z,9.12
2023-03-16T22:10:31.456Z,9.08
2023-03-16T22:14:33.056Z,9.10
2023-03-16T22:18:37.149Z,9.08
2023-03-16T22:22:38.678Z,9.04
2023-03-16T22:26:40.359Z,9.01
2023-03-16T22:30:42.197Z,9.01
2023-03-16T22:34:48.649Z,8.97
2023-03-16T22:38:59.567Z,8.94
2023-03-16T22:43:05.051Z,8.94
2023-03-16T22:47:10.865Z,8.89
2023-03-16T22:51:34.397Z,8.88
2023-03-16T22:55:38.967Z,8.86
2023-03-16T22:59:41.383Z,8.82
2023-03-16T23:03:44.133Z,8.79
2023-03-16T23:07:46.658Z,8.80
2023-03-16T23:11:53.610Z,8.75
2023-03-16T23:15:56.819Z,8.76
2023-03-16T23:19:58.355Z,8.73
2023-03-16T23:24:04.088Z,8.70
2023-03-16T23:28:07.132Z,8.68
2023-03-16T23:32:11.049Z,8.67
2023-03-16T23:36:24.442Z,8.64
2023-03-16T23:40:29.148Z,8.58
2023-03-16T23:44:31.297Z,8.58
2023-03-16T23:48:33.464Z,8.60
2023-03-16T23:52:35.632Z,8.58
2023-03-16T23:56:37.138Z,8.60
